createdAt,value
2023-07-01T00:02:20.478Z,98379.97
2023-07-01T00:04:47.828Z,98385.84
2023-07-01T00:07:15.337Z,98383.96
2023-07-01T00:09:43.732Z,98377.77
2023-07-01T00:12:10.741Z,98384.58
2023-07-01T00:14:37.856Z,98386.80
2023-07-01T00:17:04.685Z,98391.02
2023-07-01T00:19:32.034Z,98395.38
2023-07-01T00:21:58.919Z,98396.80
2023-07-01T00:24:25.711Z,98399.64
2023-07-01T00:26:52.519Z,98398.91
2023-07-01T00:29:19.469Z,98401.09
2023-07-01T00:31:47.823Z,98398.08
2023-07-01T00:34:15.179Z,98400.92
2023-07-01T00:36:42.247Z,98401.92
2023-07-01T00:39:09.029Z,98407.23
2023-07-01T00:41:35.863Z,98403.94
2023-07-01T00:44:04.851Z,98404.28
2023-07-01T00:46:34.415Z,98402.16
2023-07-01T00:49:01.741Z,98401.12
2023-07-01T00:51:29.384Z,98396.61
2023-07-01T00:53:56.362Z,98395.90
2023-07-01T00:56:24.966Z,98394.57
2023-07-01T00:58:53.231Z,98396.51
2023-07-01T01:01:29.520Z,98394.10
2023-07-01T01:04:12.284Z,98393.98
2023-07-01T01:06:47.252Z,98392.88
2023-07-01T01:09:32.343Z,98391.33
2023-07-01T01:12:02.804Z,98394.02
2023-07-01T01:14:30.440Z,98389.68
2023-07-01T01:16:58.722Z,98392.98
2023-07-01T01:19:51.430Z,98393.23
2023-07-01T01:22:23.117Z,98399.16
2023-07-01T01:24:52.048Z,98395.58
2023-07-01T01:27:26.675Z,98397.14
2023-07-01T01:29:54.307Z,98390.89
2023-07-01T01:32:21.925Z,98390.52
2023-07-01T01:34:48.913Z,98386.48
2023-07-01T01:37:33.799Z,98380.86
2023-07-01T01:40:12.261Z,98378.09
2023-07-01T01:42:44.051Z,98375.56
2023-07-01T01:45:15.479Z,98373.91
2023-07-01T01:47:43.282Z,98373.86
2023-07-01T01:50:12.339Z,98374.89
2023-07-01T01:52:42.183Z,98377.96
2023-07-01T01:55:10.896Z,98381.02
2023-07-01T01:57:38.980Z,98383.77
2023-07-01T02:00:09.286Z,98385.00
2023-07-01T02:02:44.355Z,98389.05
2023-07-01T02:05:11.971Z,98386.13
2023-07-01T02:07:39.488Z,98395.41
2023-07-01T02:10:08.063Z,98397.30
2023-07-01T02:12:35.924Z,98400.49
2023-07-01T02:15:03.017Z,98397.25
2023-07-01T02:17:30.344Z,98402.78
2023-07-01T02:19:57.192Z,98410.92
2023-07-01T02:22:23.998Z,98415.58
2023-07-01T02:24:50.835Z,98417.66
2023-07-01T02:27:19.656Z,98416.10
2023-07-01T02:29:48.237Z,98415.05
2023-07-01T02:32:15.678Z,98420.64
2023-07-01T02:34:42.762Z,98426.23
2023-07-01T02:37:09.754Z,98426.30
2023-07-01T02:39:36.848Z,98419.84
2023-07-01T02:42:04.053Z,98419.56
2023-07-01T02:44:31.189Z,98420.71
2023-07-01T02:47:45.344Z,98424.94
2023-07-01T02:50:13.049Z,98428.41
2023-07-01T02:52:40.664Z,98430.02
2023-07-01T02:55:08.908Z,98425.85
2023-07-01T02:57:36.668Z,98429.31
2023-07-01T03:00:09.302Z,98430.80
2023-07-01T03:02:37.313Z,98429.87
2023-07-01T03:05:06.088Z,98425.85
2023-07-01T03:07:34.048Z,98425.10
2023-07-01T03:10:01.826Z,98427.90
2023-07-01T03:12:29.444Z,98429.32
2023-07-01T03:14:57.260Z,98434.78
2023-07-01T03:17:26.397Z,98434.23
2023-07-01T03:19:54.442Z,98436.67
2023-07-01T03:22:22.072Z,98434.16
2023-07-01T03:24:50.050Z,98430.59
2023-07-01T03:27:17.933Z,98430.17
2023-07-01T03:29:46.594Z,98433.21
2023-07-01T03:32:14.796Z,98439.64
2023-07-01T03:34:42.436Z,98437.92
2023-07-01T03:37:10.041Z,98434.80
2023-07-01T03:39:37.905Z,98435.52
2023-07-01T03:42:05.928Z,98432.52
2023-07-01T03:44:33.586Z,98430.91
2023-07-01T03:47:01.465Z,98432.52
2023-07-01T03:49:29.057Z,98431.58
2023-07-01T03:51:56.618Z,98433.84
2023-07-01T03:54:24.492Z,98437.41
2023-07-01T03:56:52.105Z,98441.80
2023-07-01T03:59:19.860Z,98445.40
2023-07-01T04:01:47.567Z,98449.98
2023-07-01T04:04:15.293Z,98454.57
2023-07-01T04:06:43.102Z,98452.27
2023-07-01T04:09:14.002Z,98460.25
2023-07-01T04:11:41.777Z,98454.89
2023-07-01T04:14:09.771Z,98455.17
2023-07-01T04:16:37.592Z,98456.86
2023-07-01T04:19:05.252Z,98453.97
2023-07-01T04:21:32.976Z,98451.40
2023-07-01T04:24:02.234Z,98453.55
2023-07-01T04:26:29.860Z,98454.34
2023-07-01T04:28:57.818Z,98465.29
2023-07-01T04:31:25.714Z,98466.67
2023-07-01T04:33:53.919Z,98467.68
2023-07-01T04:36:21.893Z,98468.59
2023-07-01T04:38:49.567Z,98468.36
2023-07-01T04:41:17.138Z,98465.23
2023-07-01T04:43:44.975Z,98462.75
2023-07-01T04:46:15.568Z,98461.73
2023-07-01T04:48:43.193Z,98461.67
2023-07-01T04:51:10.911Z,98464.03
2023-07-01T04:53:40.602Z,98463.06
2023-07-01T04:56:08.397Z,98458.86
2023-07-01T04:58:36.051Z,98459.48
2023-07-01T05:01:04.119Z,98463.27
2023-07-01T05:03:31.883Z,98465.33
2023-07-01T05:05:59.888Z,98466.13
2023-07-01T05:08:27.504Z,98468.41
2023-07-01T05:10:55.288Z,98467.73
2023-07-01T05:13:22.854Z,98467.36
2023-07-01T05:15:50.594Z,98465.05
2023-07-01T05:18:18.569Z,98469.34
2023-07-01T05:20:46.373Z,98472.52
2023-07-01T05:23:14.263Z,98472.52
2023-07-01T05:25:42.072Z,98470.45
2023-07-01T05:28:09.934Z,98476.14
2023-07-01T05:30:38.593Z,98476.78
2023-07-01T05:33:06.181Z,98472.49
2023-07-01T05:35:33.843Z,98471.98
2023-07-01T05:38:11.950Z,98475.02
2023-07-01T05:40:40.864Z,98475.26
2023-07-01T05:43:08.600Z,98476.22
2023-07-01T05:45:36.314Z,98475.77
2023-07-01T05:48:04.490Z,98473.89
2023-07-01T05:50:32.373Z,98469.39
2023-07-01T05:53:00.129Z,98468.86
2023-07-01T05:55:27.763Z,98463.46
2023-07-01T05:57:55.386Z,98465.89
2023-07-01T06:00:23.349Z,98466.46
2023-07-01T06:02:50.960Z,98464.90
2023-07-01T06:05:19.079Z,98464.50
2023-07-01T06:07:46.763Z,98468.16
2023-07-01T06:10:15.253Z,98466.94
2023-07-01T06:12:44.091Z,98468.98
2023-07-01T06:15:11.790Z,98467.34
2023-07-01T06:17:39.597Z,98465.45
2023-07-01T06:20:08.358Z,98472.34
2023-07-01T06:22:36.568Z,98475.71
2023-07-01T06:25:04.672Z,98472.72
2023-07-01T06:27:32.432Z,98470.30
2023-07-01T06:30:00.080Z,98471.58
2023-07-01T06:32:29.005Z,98466.70
2023-07-01T06:34:57.556Z,98464.48
2023-07-01T06:37:25.162Z,98460.92
2023-07-01T06:39:53.034Z,98462.00
2023-07-01T06:42:21.526Z,98463.60
2023-07-01T06:44:49.150Z,98462.27
2023-07-01T06:47:16.881Z,98460.79
2023-07-01T06:49:44.852Z,98457.93
2023-07-01T06:52:12.495Z,98459.09
2023-07-01T07:52:25.026Z,98443.31
2023-07-01T07:54:52.862Z,98439.70
2023-07-01T07:57:21.121Z,98432.81
2023-07-01T07:59:48.960Z,98435.34
2023-07-01T08:02:16.622Z,98432.55
2023-07-01T08:04:44.348Z,98436.52
2023-07-01T08:07:12.329Z,98435.91
2023-07-01T08:09:40.377Z,98438.83
2023-07-01T08:12:08.836Z,98438.83
2023-07-01T08:14:36.654Z,98436.05
2023-07-01T08:17:04.658Z,98436.46
2023-07-01T08:19:32.288Z,98435.77
2023-07-01T08:21:59.994Z,98442.91
2023-07-01T08:24:27.938Z,98443.38
2023-07-01T08:26:56.463Z,98441.11
2023-07-01T08:29:24.394Z,98442.65
2023-07-01T08:31:52.192Z,98436.57
2023-07-01T08:34:19.824Z,98439.84
2023-07-01T08:36:47.623Z,98435.59
2023-07-01T08:39:15.272Z,98436.20
2023-07-01T08:41:48.934Z,98439.33
2023-07-01T08:44:18.697Z,98435.52
2023-07-01T08:46:47.695Z,98435.20
2023-07-01T08:49:19.109Z,98436.86
2023-07-01T08:51:46.898Z,98440.79
2023-07-01T08:54:15.223Z,98441.23
2023-07-01T08:56:43.207Z,98446.46
2023-07-01T08:59:16.099Z,98443.15
2023-07-01T09:01:44.750Z,98440.84
2023-07-01T09:04:13.178Z,98442.38
2023-07-01T09:06:41.065Z,98442.27
2023-07-01T09:09:08.705Z,98439.40
2023-07-01T09:11:37.107Z,98434.86
2023-07-01T09:14:06.324Z,98436.81
2023-07-01T09:16:38.215Z,98436.73
2023-07-01T09:19:07.954Z,98435.73
2023-07-01T09:21:37.119Z,98437.89
2023-07-01T09:24:07.644Z,98434.48
2023-07-01T09:26:35.505Z,98433.77
2023-07-01T09:29:17.410Z,98432.77
2023-07-01T09:31:50.150Z,98434.40
2023-07-01T09:34:19.048Z,98427.87
2023-07-01T09:36:46.901Z,98426.91
2023-07-01T09:39:14.500Z,98424.63
2023-07-01T09:41:42.280Z,98418.21
2023-07-01T09:44:20.183Z,98419.91
2023-07-01T09:46:48.383Z,98415.61
2023-07-01T09:49:16.089Z,98410.22
2023-07-01T09:51:51.892Z,98408.10
2023-07-01T09:54:30.783Z,98405.81
2023-07-01T09:57:00.843Z,98403.98
2023-07-01T09:59:28.891Z,98404.36
2023-07-01T10:01:58.971Z,98412.06
2023-07-01T10:04:30.835Z,98411.52
2023-07-01T10:06:59.447Z,98402.17
2023-07-01T10:09:29.326Z,98394.93
2023-07-01T10:12:00.789Z,98389.42
2023-07-01T10:14:33.204Z,98397.69
2023-07-01T10:17:01.169Z,98398.78
2023-07-01T10:19:35.023Z,98399.98
2023-07-01T10:22:32.987Z,98397.46
2023-07-01T10:25:07.144Z,98385.79
2023-07-01T10:27:44.236Z,98385.02
2023-07-01T10:30:15.529Z,98384.86
2023-07-01T10:32:45.069Z,98395.61
2023-07-01T10:35:15.579Z,98397.66
2023-07-01T10:37:46.089Z,98396.73
2023-07-01T10:40:29.039Z,98397.89
2023-07-01T10:43:31.081Z,98391.92
2023-07-01T10:46:25.757Z,98391.63
2023-07-01T10:49:08.155Z,98388.80
2023-07-01T10:51:45.335Z,98390.05
2023-07-01T10:54:13.079Z,98388.21
2023-07-01T10:57:02.749Z,98386.71
2023-07-01T10:59:31.827Z,98383.38
2023-07-01T11:02:02.638Z,98389.58
2023-07-01T11:04:56.338Z,98388.86
2023-07-01T11:07:25.840Z,98384.96
2023-07-01T11:09:54.666Z,98382.71
2023-07-01T11:12:28.746Z,98383.70
2023-07-01T11:14:56.509Z,98381.11
2023-07-01T11:17:24.926Z,98384.66
2023-07-01T11:19:56.970Z,98383.02
2023-07-01T11:22:25.162Z,98385.77
2023-07-01T11:24:52.796Z,98385.23
2023-07-01T11:27:22.683Z,98377.91
2023-07-01T11:29:50.518Z,98379.39
2023-07-01T11:32:19.226Z,98382.23
2023-07-01T11:34:50.735Z,98383.30
2023-07-01T11:37:29.012Z,98386.20
2023-07-01T11:39:57.126Z,98386.28
2023-07-01T11:42:28.518Z,98379.44
2023-07-01T11:44:56.218Z,98375.27
2023-07-01T11:47:24.099Z,98375.38
2023-07-01T11:49:51.903Z,98373.58
2023-07-01T11:52:24.911Z,98366.39
2023-07-01T11:54:57.026Z,98363.05
2023-07-01T11:57:24.846Z,98363.61
2023-07-01T12:00:02.608Z,98362.11
2023-07-01T12:02:34.832Z,98357.77
2023-07-01T12:05:05.289Z,98363.02
2023-07-01T12:07:33.149Z,98363.57
2023-07-01T12:10:22.174Z,98356.64
2023-07-01T12:12:49.989Z,98362.47
2023-07-01T12:15:17.617Z,98364.77
2023-07-01T12:17:45.381Z,98360.91
2023-07-01T12:20:13.095Z,98366.09
2023-07-01T12:22:40.674Z,98363.23
2023-07-01T12:25:08.886Z,98356.28
2023-07-01T12:27:36.717Z,98354.08
2023-07-01T12:30:06.056Z,98349.13
2023-07-01T12:32:33.878Z,98352.19
2023-07-01T12:35:01.829Z,98346.34
2023-07-01T12:37:30.193Z,98346.36
2023-07-01T12:39:58.120Z,98344.86
2023-07-01T12:42:26.492Z,98338.17
2023-07-01T12:44:54.452Z,98339.07
2023-07-01T12:47:22.178Z,98339.07
2023-07-01T12:49:49.918Z,98339.06
2023-07-01T12:52:17.690Z,98336.29
2023-07-01T12:54:45.275Z,98334.42
2023-07-01T12:57:13.867Z,98337.87
2023-07-01T12:59:45.814Z,98341.20
2023-07-01T13:02:14.140Z,98341.15
2023-07-01T13:04:41.775Z,98339.64
2023-07-01T13:07:18.167Z,98340.66
2023-07-01T13:09:56.171Z,98336.88
2023-07-01T13:12:27.692Z,98336.30
2023-07-01T13:14:57.879Z,98329.38
2023-07-01T13:17:40.116Z,98330.86
2023-07-01T13:20:09.696Z,98332.21
2023-07-01T13:22:37.947Z,98337.52
2023-07-01T13:25:06.438Z,98334.70
2023-07-01T13:27:34.256Z,98335.02
2023-07-01T13:30:02.213Z,98328.98
2023-07-01T13:32:29.936Z,98330.12
2023-07-01T13:34:58.268Z,98326.83
2023-07-01T13:37:27.496Z,98325.34
2023-07-01T13:39:56.589Z,98326.13
2023-07-01T13:42:28.263Z,98320.98
2023-07-01T13:44:58.287Z,98323.00
2023-07-01T13:47:41.822Z,98320.77
2023-07-01T13:50:10.708Z,98318.08
2023-07-01T13:52:42.334Z,98316.64
2023-07-01T13:55:11.552Z,98317.95
2023-07-01T13:57:39.192Z,98319.36
2023-07-01T14:00:35.614Z,98321.64
2023-07-01T14:03:23.522Z,98323.85
2023-07-01T14:05:56.977Z,98321.88
2023-07-01T14:08:26.914Z,98324.09
2023-07-01T14:11:01.183Z,98321.96
2023-07-01T14:13:30.530Z,98322.70
2023-07-01T14:15:58.430Z,98321.13
2023-07-01T14:18:31.487Z,98326.96
2023-07-01T14:21:06.012Z,98323.41
2023-07-01T14:23:36.604Z,98325.52
2023-07-01T14:26:04.973Z,98324.04
2023-07-01T14:28:33.137Z,98320.48
2023-07-01T14:31:05.716Z,98322.70
2023-07-01T14:34:03.101Z,98318.66
2023-07-01T14:36:35.425Z,98313.66
2023-07-01T14:39:04.467Z,98310.88
2023-07-01T14:41:34.613Z,98312.15
2023-07-01T14:44:03.818Z,98312.09
2023-07-01T14:46:36.712Z,98315.30
2023-07-01T14:49:07.144Z,98314.34
2023-07-01T14:51:36.427Z,98317.98
2023-07-01T14:54:04.898Z,98322.99
2023-07-01T14:56:32.565Z,98317.80
2023-07-01T14:59:00.271Z,98317.98
2023-07-01T15:01:28.313Z,98316.96
2023-07-01T15:03:56.420Z,98314.48
2023-07-01T15:06:24.332Z,98312.52
2023-07-01T15:08:51.939Z,98315.95
2023-07-01T15:11:20.568Z,98315.48
2023-07-01T15:13:48.832Z,98316.75
2023-07-01T15:16:18.238Z,98312.48
2023-07-01T15:18:46.275Z,98316.14
2023-07-01T15:21:14.295Z,98319.59
2023-07-01T15:23:41.939Z,98320.29
2023-07-01T15:26:09.552Z,98323.11
2023-07-01T15:28:37.396Z,98319.80
2023-07-01T15:31:07.568Z,98316.94
2023-07-01T15:33:35.420Z,98320.58
2023-07-01T15:36:04.185Z,98322.11
2023-07-01T15:38:31.769Z,98320.25
2023-07-01T15:40:59.432Z,98318.51
2023-07-01T15:43:27.317Z,98316.65
2023-07-01T15:45:56.223Z,98316.92
2023-07-01T15:48:28.810Z,98319.42
2023-07-01T15:50:56.411Z,98322.44
2023-07-01T15:53:23.986Z,98322.27
2023-07-01T15:55:54.194Z,98327.15
2023-07-01T15:58:22.479Z,98325.85
2023-07-01T16:00:50.376Z,98327.22
2023-07-01T16:03:18.149Z,98329.47
2023-07-01T16:05:47.249Z,98328.84
2023-07-01T16:08:16.546Z,98329.17
2023-07-01T16:10:50.284Z,98333.46
2023-07-01T16:13:39.703Z,98332.27
2023-07-01T16:16:09.362Z,98327.38
2023-07-01T16:18:50.094Z,98325.77
2023-07-01T16:21:22.316Z,98327.31
2023-07-01T16:23:53.551Z,98329.42
2023-07-01T16:26:41.510Z,98328.56
2023-07-01T16:29:09.871Z,98328.05
2023-07-01T16:31:39.299Z,98325.83
2023-07-01T16:34:12.529Z,98326.17
2023-07-01T16:36:40.753Z,98323.30
2023-07-01T16:39:11.623Z,98322.13
2023-07-01T16:41:39.884Z,98321.38
2023-07-01T16:44:07.973Z,98324.85
2023-07-01T16:46:38.175Z,98321.16
2023-07-01T16:49:08.150Z,98320.71
2023-07-01T16:51:37.000Z,98318.75
2023-07-01T16:54:16.479Z,98316.85
2023-07-01T16:56:44.365Z,98313.30
2023-07-01T16:59:25.642Z,98314.73
2023-07-01T17:01:53.400Z,98319.80
2023-07-01T17:04:30.379Z,98317.52
2023-07-01T17:06:58.505Z,98320.35
2023-07-01T17:09:40.637Z,98319.96
2023-07-01T17:12:11.295Z,98319.14
2023-07-01T17:14:49.258Z,98320.63
2023-07-01T17:17:29.563Z,98320.15
2023-07-01T17:19:59.938Z,98319.14
2023-07-01T17:22:29.166Z,98320.41
2023-07-01T17:24:57.164Z,98323.00
2023-07-01T17:27:25.475Z,98323.77
2023-07-01T17:29:53.428Z,98319.92
2023-07-01T17:32:21.920Z,98318.09
2023-07-01T17:35:05.127Z,98318.75
2023-07-01T17:37:33.056Z,98316.76
2023-07-01T17:40:00.682Z,98316.32
2023-07-01T17:42:29.806Z,98318.83
2023-07-01T17:44:57.879Z,98317.30
2023-07-01T17:47:25.769Z,98312.84
2023-07-01T17:49:56.380Z,98312.70
2023-07-01T17:52:28.376Z,98314.19
2023-07-01T17:55:08.126Z,98313.63
2023-07-01T17:57:50.306Z,98313.95
2023-07-01T18:00:22.838Z,98315.96
2023-07-01T18:02:50.696Z,98317.41
2023-07-01T18:05:18.812Z,98315.62
2023-07-01T18:07:46.507Z,98319.79
2023-07-01T18:10:15.295Z,98317.36
2023-07-01T18:12:43.091Z,98321.38
2023-07-01T18:15:15.853Z,98324.33
2023-07-01T18:17:46.598Z,98327.67
2023-07-01T18:20:14.899Z,98324.14
2023-07-01T18:22:42.648Z,98332.64
2023-07-01T18:25:14.306Z,98334.02
2023-07-01T18:27:42.315Z,98333.42
2023-07-01T18:30:14.696Z,98335.63
2023-07-01T18:32:46.330Z,98335.89
2023-07-01T18:35:16.262Z,98340.63
2023-07-01T18:37:46.505Z,98344.46
2023-07-01T18:40:15.605Z,98341.72
2023-07-01T18:42:43.484Z,98340.73
2023-07-01T18:45:12.384Z,98342.64
2023-07-01T18:47:40.092Z,98343.27
2023-07-01T18:50:08.220Z,98347.55
2023-07-01T18:52:35.849Z,98346.61
2023-07-01T18:55:04.547Z,98350.44
2023-07-01T18:57:32.161Z,98348.40
2023-07-01T18:59:59.977Z,98347.63
2023-07-01T19:02:27.710Z,98345.98
2023-07-01T19:04:55.398Z,98344.89
2023-07-01T19:07:23.174Z,98346.67
2023-07-01T19:09:50.940Z,98343.41
2023-07-01T19:12:18.516Z,98343.95
2023-07-01T19:14:46.351Z,98344.70
2023-07-01T19:17:14.234Z,98346.67
2023-07-01T19:19:41.902Z,98347.13
2023-07-01T19:22:18.635Z,98344.95
2023-07-01T19:24:50.087Z,98346.92
2023-07-01T19:27:20.199Z,98348.98
2023-07-01T19:30:03.398Z,98351.50
2023-07-01T19:32:38.673Z,98352.38
2023-07-01T19:35:07.070Z,98349.72
2023-07-01T19:37:34.677Z,98356.88
2023-07-01T19:40:09.319Z,98355.48
2023-07-01T19:42:39.612Z,98357.40
2023-07-01T19:45:09.774Z,98356.58
2023-07-01T19:47:42.749Z,98355.89
2023-07-01T19:50:12.635Z,98358.16
2023-07-01T19:52:42.344Z,98362.00
2023-07-01T19:55:10.830Z,98358.06
2023-07-01T19:57:39.170Z,98357.98
2023-07-01T20:00:09.203Z,98359.80
2023-07-01T20:02:40.030Z,98360.55
2023-07-01T20:05:09.227Z,98361.23
2023-07-01T20:07:37.244Z,98359.04
2023-07-01T20:10:13.143Z,98351.70
2023-07-01T20:12:46.308Z,98352.05
2023-07-01T20:15:14.157Z,98356.94
2023-07-01T20:17:41.885Z,98357.09
2023-07-01T20:20:10.095Z,98354.71
2023-07-01T20:22:38.013Z,98360.58
2023-07-01T20:25:05.885Z,98363.30
2023-07-01T20:27:33.674Z,98366.05
2023-07-01T20:30:01.508Z,98362.04
2023-07-01T20:32:30.070Z,98360.90
2023-07-01T20:34:57.976Z,98366.72
2023-07-01T20:37:25.665Z,98367.15
2023-07-01T20:39:53.377Z,98363.92
2023-07-01T20:42:22.606Z,98359.63
2023-07-01T20:44:52.571Z,98361.42
2023-07-01T20:47:21.364Z,98362.17
2023-07-01T20:49:50.517Z,98362.46
2023-07-01T20:52:20.231Z,98368.29
2023-07-01T20:54:48.746Z,98372.09
2023-07-01T20:57:17.842Z,98374.32
2023-07-01T20:59:46.282Z,98371.92
2023-07-01T21:02:14.443Z,98373.99
2023-07-01T21:04:42.166Z,98378.27
2023-07-01T21:07:10.053Z,98381.83
2023-07-01T21:09:37.910Z,98380.50
2023-07-01T21:12:06.749Z,98384.00
2023-07-01T21:14:34.392Z,98385.19
2023-07-01T21:17:02.224Z,98386.35
2023-07-01T21:19:29.985Z,98385.45
2023-07-01T21:21:57.783Z,98384.29
2023-07-01T21:24:25.626Z,98384.60
2023-07-01T21:26:53.523Z,98382.70
2023-07-01T21:29:23.589Z,98382.25
2023-07-01T21:31:53.702Z,98383.69
2023-07-01T21:34:22.639Z,98382.23
2023-07-01T21:36:51.499Z,98384.63
2023-07-01T21:39:23.768Z,98390.44
2023-07-01T21:41:52.064Z,98392.41
2023-07-01T21:44:20.209Z,98389.54
2023-07-01T21:46:47.881Z,98388.23
2023-07-01T21:49:17.448Z,98388.28
2023-07-01T21:51:49.011Z,98388.38
2023-07-01T21:54:20.874Z,98387.83
2023-07-01T21:56:50.190Z,98390.85
2023-07-01T21:59:18.898Z,98393.36
2023-07-01T22:01:47.309Z,98390.90
2023-07-01T22:04:16.386Z,98390.76
2023-07-01T22:06:49.576Z,98392.29
2023-07-01T22:09:18.097Z,98390.33
2023-07-01T22:11:46.397Z,98392.44
2023-07-01T22:14:14.513Z,98392.32
2023-07-01T22:16:42.319Z,98393.85
2023-07-01T22:19:10.325Z,98388.13
2023-07-01T22:21:39.913Z,98391.30
2023-07-01T22:24:07.740Z,98392.94
2023-07-01T22:26:36.054Z,98395.94
2023-07-01T22:29:04.534Z,98396.20
2023-07-01T22:31:32.339Z,98396.16
2023-07-01T22:34:00.268Z,98396.98
2023-07-01T22:36:28.550Z,98400.27
2023-07-01T22:38:59.329Z,98395.88
2023-07-01T22:41:27.101Z,98393.79
2023-07-01T22:43:54.878Z,98401.30
2023-07-01T22:46:22.651Z,98402.29
2023-07-01T22:48:50.434Z,98401.50
2023-07-01T22:51:19.419Z,98403.05
2023-07-01T22:53:48.881Z,98402.80
2023-07-01T22:56:16.965Z,98399.45
2023-07-01T22:58:44.749Z,98400.67
2023-07-01T23:01:12.341Z,98399.93
2023-07-01T23:03:41.011Z,98399.59
2023-07-01T23:06:09.275Z,98398.21
2023-07-01T23:08:37.093Z,98398.35
2023-07-01T23:11:04.766Z,98401.45
2023-07-01T23:13:32.420Z,98399.77
2023-07-01T23:16:00.214Z,98399.67
2023-07-01T23:18:28.000Z,98393.72
2023-07-01T23:20:55.639Z,98394.23
2023-07-01T23:23:23.540Z,98392.79
2023-07-01T23:25:51.337Z,98395.21
2023-07-01T23:28:18.960Z,98393.23
2023-07-01T23:30:47.151Z,98388.45
2023-07-01T23:33:15.069Z,98394.32
2023-07-01T23:35:42.660Z,98390.57
2023-07-01T23:38:11.530Z,98389.98
2023-07-01T23:40:39.760Z,98389.99
2023-07-01T23:43:08.212Z,98388.34
2023-07-01T23:45:35.982Z,98389.35
2023-07-01T23:48:03.737Z,98387.13
2023-07-01T23:50:31.443Z,98388.66
2023-07-01T23:52:59.198Z,98382.85
2023-07-01T23:55:27.356Z,98377.20
2023-07-01T23:57:55.605Z,98374.08
